Tiempo atmosférico en la estación meteorológica de Bujaraloz, Zaragoza (357 m.)

Fecha
DESCASC
Temp. máxima en grados centígrados (hora)
DESCASC
Temp. mínima en grados centígrados (hora)
DESCASC
Temp. media en grados centígrados
DESCASC
Racha de viento máxima en m/sg (hora)
DESCASC
Velocidad máxima media en intervalos de 10 minutos(hora)
DESCASC
Precipitaciones diarias en mm
DESCASC
Precipitaciones de 00:00 a 06:00 en mm
DESCASC
Precipitaciones de 06:00 a 12:00 en mm
DESCASC
Precipitaciones de 12:00 a 18:00 en mm
DESCASC
Precipitaciones de 18:00 a 24:00 en mm
DESCASC
10-12-2017 13.4 (17:20) 1.2 (07:20) 7.3 10.28 (18:10) 5.83 (17:10) 0 0 0 0 0
09-12-2017 10.6 (14:10) 2.8 (08:50) 6.7 17.22 (04:30) 12.22 (04:30) 0.2 0 0 0 0.2
08-12-2017 11.7 (15:30) -1.6 (00:50) 5 16.39 (13:30) 10.56 (12:20) 0 0 0 0 0
07-12-2017 6.2 (15:00) -4.8 (-00:0) 0.7 4.17 (21:20) 2.78 (21:10) 0 0 0 0 0
06-12-2017 8 (16:30) -3.6 (-00:0) 2.2 3.33 (16:00) 2.22 (17:20) 0 0 0 0 0
05-12-2017 9.1 (16:00) -1.9 (-00:0) 3.6 7.22 (12:40) 4.44 (13:40) 0 0 0 0 0
04-12-2017 10.3 (16:00) -4.4 (-00:0) 3 6.94 (00:20) 5.28 (00:20) 0 0 0 0 0
03-12-2017 8 (15:00) -4.2 (-00:0) 1.9 12.22 (16:40) 8.06 (05:30) 0 0 0 0 0
02-12-2017 7.7 (15:00) -1.6 (-00:0) 3 20.83 (12:30) 12.78 (13:30) 0 0 0 0 0
01-12-2017 7.3 (15:20) -0.7 (-00:0) 3.3 19.72 (13:20) 13.33 (13:30) 0.2 0 0.2 0 0
30-11-2017 10.4 (14:40) -2.8 (-00:0) 3.8 14.17 (15:40) 10.56 (15:40) 0 0 0 0 0
29-11-2017 11.4 (14:00) -0.9 (-00:0) 5.2 13.06 (14:50) 9.17 (14:50) 0 0 0 0 0
28-11-2017 10.9 (15:50) -2.9 (-00:0) 4 10.28 (14:00) 6.94 (12:20) 0 0 0 0 0
27-11-2017 8.5 (15:10) -2.4 (-00:0) 3 6.94 (00:20) 5 (00:50) 0 0 0 0 0
26-11-2017 12.2 (14:20) 2.6 (00:00) 7.4 14.17 (05:10) 9.72 (02:00) 0 0 0 0 0
25-11-2017 15.3 (15:10) 4.8 (00:00) 10.1 18.61 (13:10) 13.89 (13:10) 0 0 0 0 0
24-11-2017 19.2 (14:00) 6.7 (00:00) 13 5.56 (14:20) 3.89 (14:30) 0 0 0 0 0
23-11-2017 16.9 (15:40) 4.1 (00:00) 10.5 5.83 (12:00) 2.78 (14:30) 0 0 0 0 0
22-11-2017 14.8 (15:50) 0.5 (00:00) 7.7 4.72 (23:50) 2.78 (23:50) 0 0 0 0 0
21-11-2017 14.6 (15:20) 1.2 (00:00) 7.9 3.89 (13:30) 1.94 (06:20) 0 0 0 0 0
20-11-2017 14.9 (15:20) -0.4 (00:00) 7.2 7.22 (14:00) 5 (14:00) 0 0 0 0 0
19-11-2017 13.4 (15:30) 1.9 (00:00) 7.6 8.61 (11:40) 6.39 (12:10) 0 0 0 0 0
18-11-2017 15.2 (15:50) 1.4 (00:00) 8.3 7.5 (15:20) 4.17 (22:00) 0 0 0 0 0
17-11-2017 15.1 (15:30) 0 (00:00) 7.6 6.67 (13:10) 4.17 (13:10) 0 0 0 0 0
16-11-2017 13.2 (16:10) 0.8 (00:00) 7 5.28 (02:20) 3.33 (02:20) 0 0 0 0 0
15-11-2017 12.4 (14:50) -1.2 (-00:0) 5.6 8.61 (11:40) 5.28 (12:10) 0 0 0 0 0

Gráficas

Temp. máximas Temp. mínimas Temp. medias Precipitaciones Rachas de viento máximas Velocidades máximas media en intervalos de 10 minutos

Datos horarios

Fecha y hora oficial Temperatura (ºC) Velocidad del viento (km/h) Dirección del viento Racha (km/h) Dirección de racha Precipitación (mm) Presión (hPa) Tendencia (hPa) Humedad (%)
2017-12-14 23:00:00 10.7 13 Sudoeste 19 Oeste 0 967.9 -2.3 80
2017-12-14 22:00:00 9.2 12 Oeste 21 Sudoeste 0 968.7 -1.7 83
2017-12-14 21:00:00 10.5 13 Sudoeste 20 Oeste 0 969.6 -1.1 78
2017-12-14 20:00:00 10.1 8 Sudoeste 15 Sudoeste 0 970.2 -0.7 78
2017-12-14 19:00:00 11.6 4 Sudeste 7 Noroeste 0 970.4 -0.8 73
2017-12-14 18:00:00 12.1 0 Calma 10 Oeste 0 970.7 -1.2 69
2017-12-14 17:00:00 12.9 6 Sudoeste 20 Oeste 0 970.9 -1.9 66
2017-12-14 16:00:00 13.8 14 Oeste 25 Oeste 0 971.2 -3.2 62
2017-12-14 15:00:00 13.4 15 Oeste 22 Oeste 0 971.9 -3.4 64
2017-12-14 14:00:00 12.3 16 Oeste 28 Oeste 0 972.8 -2.9 71
2017-12-14 13:00:00 11.7 14 Sudoeste 28 Oeste 0 974.4 -1.2 76
2017-12-14 12:00:00 11.5 17 Oeste 32 Oeste 0 975.3 0.2 78
2017-12-14 11:00:00 11 21 Oeste 32 Oeste 0 975.7 0.7 82
2017-12-14 10:00:00 11.1 19 Oeste 27 Oeste 0 975.6 0.7 72
2017-12-14 09:00:00 10.6 21 Oeste 29 Oeste 0 975.1 0.3 70
2017-12-14 08:00:00 9.1 18 Oeste 24 Oeste 0 975 -0.2 75
2017-12-14 07:00:00 6.9 9 Sudoeste 23 Oeste 0 974.9 -1.2 79
2017-12-14 06:00:00 8.3 16 Oeste 23 Oeste 0 974.8 -1.7 77
2017-12-14 05:00:00 7.1 10 Oeste 23 Oeste 0 975.2 -1.7 78
2017-12-14 04:00:00 8.1 19 Oeste 27 Oeste 0 976.1 -1.6 74
2017-12-14 03:00:00 7.6 20 Oeste 28 Oeste 0 976.5 -1.6 74
2017-12-14 02:00:00 5.7 11 Sudoeste 19 Sudoeste 0 976.9 -1.5 77
2017-12-14 01:00:00 5.3 6 Noroeste 11 Sudoeste 0 977.7 -0.8 76
2017-12-14 00:00:00 5.8 4 Sudoeste 9 Sur 0 978.1 -0.7 75
2017-12-13 23:00:00 6.4 3 Sudoeste 10 Sur 0 978.4 0 73
2017-12-13 22:00:00 6.9 5 Sudoeste 12 Oeste 0 978.5 -0.1 73
2017-12-13 21:00:00 5.4 6 Oeste 10 Oeste 0 978.8 0.3 73
2017-12-13 20:00:00 4.8 4 Sur 6 Sur 0 978.4 -0.2 72
2017-12-13 19:00:00 5.7 0 Calma 12 Oeste 0 978.6 -0.3 66
2017-12-13 18:00:00 6.9 10 Oeste 17 Oeste 0 978.5 -0.8 62
2017-12-13 17:00:00 9.1 13 Oeste 27 Oeste 0 978.6 -0.8 57
2017-12-13 16:00:00 10.6 19 Oeste 34 Oeste 0 978.9 -1.7 52
2017-12-13 15:00:00 10.9 23 Oeste 41 Oeste 0 979.3 -1.8 49
2017-12-13 14:00:00 9.8 21 Oeste 38 Sudoeste 0 979.4 -2.4 54
2017-12-13 13:00:00 8.5 21 Oeste 32 Oeste 0 980.6 -1.3 59
2017-12-13 12:00:00 4.8 4 Nordeste 9 Este 0 981.1 -0.2 76
2017-12-13 11:00:00 3 2 Sur 6 Sudeste 0 981.8 0.7 80
2017-12-13 10:00:00 1.1 3 Nordeste 5 Nordeste 0 981.9 0.9 83
2017-12-13 09:00:00 -1.4 2 Noroeste 5 Sur 0 981.3 1 88
2017-12-13 08:00:00 -1.4 3 Sudeste 8 Sudeste 0 981.1 0.6 86
2017-12-13 07:00:00 -0.8 6 Sur 19 Oeste 0 981 0.5 82
2017-12-13 06:00:00 0.5 14 Oeste 20 Oeste 0 980.3 -0.4 81
2017-12-13 05:00:00 0.7 14 Oeste 19 Oeste 0 980.5 0 82
2017-12-13 04:00:00 -0.4 12 Oeste 21 Sudoeste 0 980.5 0.2 88
2017-12-13 03:00:00 0.6 12 Sudoeste 20 Oeste 0 980.7 1 83
2017-12-13 02:00:00 1.8 14 Oeste 23 Oeste 0 980.5 1.5 80
2017-12-13 01:00:00 0.3 15 Sudoeste 25 Oeste 0 980.3 2.3 85
2017-12-13 00:00:00 1.4 16 Oeste 26 Sudoeste 0 979.7 1.9 81
2017-12-12 23:00:00 1.2 18 Oeste 27 Oeste 0 979 2 81
2017-12-12 22:00:00 1.9 10 Sudoeste 21 Oeste 0 978 2.2 78
2017-12-12 21:00:00 1.6 11 Oeste 18 Oeste 0 977.8 3 77
2017-12-12 20:00:00 4.7 17 Oeste 31 Oeste 0 977 3.1 67
2017-12-12 19:00:00 4.6 15 Oeste 32 Oeste 0 975.8 2.6 64
2017-12-12 18:00:00 5.8 20 Oeste 35 Oeste 0 974.8 2.3 56
2017-12-12 17:00:00 8.8 26 Oeste 40 Oeste 0 973.9 2 38
2017-12-12 16:00:00 9.7 25 Oeste 45 Oeste 0 973.2 1.5 40
2017-12-12 15:00:00 9.8 30 Oeste 43 Oeste -- 972.5 0.8 41
2017-12-12 14:00:00 9.8 27 Oeste 45 Oeste -- 971.9 0.8 43
2017-12-12 13:00:00 9.1 32 Oeste 48 Oeste -- 971.7 1.3 48
2017-12-12 12:00:00 7.8 32 Oeste 47 Oeste -- 971.7 1.9 57
2017-12-12 11:00:00 6.1 29 Oeste 45 Oeste -- 971.1 2.5 66
2017-12-12 10:00:00 3.4 23 Oeste 35 Sudoeste -- 970.4 2.8 76
2017-12-12 09:00:00 1.5 18 Oeste 38 Oeste -- 969.8 3.3 81
2017-12-12 08:00:00 1.4 24 Oeste 42 Oeste -- 968.6 2.6 82
2017-12-12 07:00:00 2.9 26 Oeste 36 Oeste -- 967.6 2.3 75
2017-12-12 06:00:00 3.3 28 Oeste 40 Oeste -- 966.5 1.4 75
2017-12-12 05:00:00 2.4 22 Oeste 33 Sudoeste -- 966 1.5 79
2017-12-12 04:00:00 2.6 19 Oeste 32 Oeste -- 965.3 1.8 80
2017-12-12 03:00:00 3.2 14 Oeste 20 Oeste -- 965.1 2.7 81
2017-12-12 02:00:00 3.1 14 Oeste 29 Oeste -- 964.5 3.4 83
2017-12-12 01:00:00 4 18 Sudoeste 29 Sudoeste -- 963.5 3.7 82
2017-12-12 00:00:00 3.9 19 Oeste 28 Oeste -- 962.4 3.6 83
2017-12-11 23:00:00 4.2 12 Sudoeste 31 Oeste -- 961.1 3.6 79
2017-12-11 22:00:00 5.9 23 Oeste 33 Oeste -- 959.8 3.9 71
2017-12-11 21:00:00 6.4 14 Oeste 29 Oeste -- 958.8 4.4 62
2017-12-11 20:00:00 6.9 11 Oeste 30 Oeste -- 957.5 4.5 59
2017-12-11 19:00:00 9.2 19 Oeste 33 Sudoeste -- 955.9 4.2 52
2017-12-11 18:00:00 9.6 18 Sudoeste 35 Oeste -- 954.4 3.7 51
2017-12-11 17:00:00 9.6 6 Noroeste 24 Oeste -- 953 2.8 60
2017-12-11 16:00:00 11.1 18 Oeste 32 Oeste -- 951.7 1.9 55
2017-12-11 15:00:00 11.2 26 Oeste 41 Oeste 0 950.7 0.3 55
2017-12-11 14:00:00 11.9 22 Oeste 40 Oeste 0 950.2 0.4 57
2017-12-11 13:00:00 11.5 23 Sudoeste 39 Oeste 0 949.8 0.4 60
2017-12-11 12:00:00 11.2 17 Sudoeste 35 Sudoeste 0 950.4 2.3 60
2017-12-11 11:00:00 10.6 16 Sudoeste 29 Sudoeste 0 949.8 2 67
2017-12-11 10:00:00 8.9 12 Oeste 21 Oeste 0 949.4 2.5 77
2017-12-11 09:00:00 8.9 14 Oeste 22 Oeste 0 948.1 1.4 76
2017-12-11 08:00:00 9.5 17 Oeste 35 Oeste 0 947.8 1.6 76
2017-12-11 07:00:00 10.4 14 Sudoeste 39 Oeste 0.2 946.9 -0.4 83
2017-12-11 06:00:00 9.6 8 Noroeste 17 Noroeste 0.2 946.7 -2.3 86
2017-12-11 05:00:00 10 4 Noroeste 15 Este 0 946.2 -3.9 78
2017-12-11 04:00:00 10 9 Nordeste 17 Nordeste 0.2 947.3 -4.4 79
2017-12-11 03:00:00 10.5 5 Norte 22 Este 0 949 -4.4 75
2017-12-11 02:00:00 10.3 6 Nordeste 13 Este 0 950.1 -4.9 72
2017-12-11 01:00:00 10.3 8 Sudeste 13 Este 0 951.7 -4.6 73
2017-12-11 00:00:00 10.7 9 Sudeste 15 Sudeste 0 953.4 -5 72
2017-12-10 23:00:00 11.5 9 Sudeste 21 Este 0 955 -4.4 68
2017-12-10 22:00:00 12.3 11 Sur 21 Sur 0 956.3 -4.7 65
2017-12-10 21:00:00 12.1 8 Sur 19 Sur 0 958.4 -3.7 66
2017-12-10 20:00:00 12.4 9 Sur 23 Sudoeste 0 959.4 -3.5 65
2017-12-10 19:00:00 12.7 12 Sudoeste 37 Sudoeste 0 961 -3 65
2017-12-10 18:00:00 12.5 10 Sudoeste 34 Sudoeste 0 962.1 -3.3 66
2017-12-10 17:00:00 13.2 17 Sudoeste 32 Sudoeste 0 962.9 -3.8 63
2017-12-10 16:00:00 10.8 2 Oeste 7 Sudeste 0 964 -4.2 76
2017-12-10 15:00:00 10.6 6 Sudeste 10 Sudeste 0 965.4 -3.9 76
2017-12-10 14:00:00 10.2 4 Norte 10 Norte 0 966.7 -3.9 77
2017-12-10 13:00:00 8.9 5 Nordeste 10 Nordeste 0 968.2 -2.7 81
2017-12-10 12:00:00 7.6 6 Nordeste 9 Nordeste 0 969.3 -2.1 84
2017-12-10 11:00:00 6.3 3 Nordeste 8 Noroeste 0 970.6 -0.7 89
2017-12-10 10:00:00 4.7 6 Este 9 Este 0 970.9 -0.6 92
2017-12-10 09:00:00 2.6 4 Noroeste 10 Nordeste 0 971.4 -0.6 94
2017-12-10 08:00:00 2.1 4 Nordeste 5 Nordeste 0 971.3 -1.2 93
2017-12-10 07:00:00 2.1 3 Sudeste 6 Sudeste 0 971.5 -2 92
2017-12-10 06:00:00 2.9 3 Este 9 Este 0 972 -2.3 87
2017-12-10 05:00:00 4.6 5 Noroeste 13 Noroeste 0 972.5 -2.1 85
2017-12-10 04:00:00 5 8 Noroeste 16 Noroeste 0 973.5 -2.2 84
2017-12-10 03:00:00 5.6 9 Noroeste 16 Noroeste 0 974.3 -1.9 81
2017-12-10 02:00:00 5.5 9 Noroeste 14 Noroeste 0 974.6 -2 81
2017-12-10 01:00:00 5.6 8 Norte 13 Noroeste 0 975.7 -1.6 84
2017-12-10 00:00:00 5.7 5 Nordeste 8 Nordeste 0 976.2 -1.1 84
2017-12-09 23:00:00 5.9 5 Nordeste 9 Este 0 976.6 -1.2 86
2017-12-09 22:00:00 6.2 3 Norte 6 Sudeste 0 977.3 -0.5 80
2017-12-09 21:00:00 5.8 3 Sudeste 5 Sudeste 0.2 977.3 -1 79
2017-12-09 20:00:00 5.9 3 Oeste 6 Sur 0 977.8 -0.6 66
2017-12-09 19:00:00 6.7 6 Sur 8 Sur 0 977.8 -0.7 62
2017-12-09 18:00:00 8.9 6 Oeste 26 Oeste 0 978.3 -0.2 57
2017-12-09 17:00:00 9.7 19 Oeste 46 Oeste 0 978.4 -1.1 53
2017-12-09 16:00:00 10.1 27 Oeste 46 Oeste 0 978.5 -1.6 51
2017-12-09 15:00:00 9.6 31 Oeste 54 Oeste 0 978.5 -1.6 54
2017-12-09 14:00:00 10.1 32 Oeste 49 Oeste 0 979.5 -1.1 52
2017-12-09 13:00:00 9.9 36 Oeste 53 Oeste 0 980.1 0.4 50
2017-12-09 12:00:00 8.8 40 Oeste 54 Oeste 0 980.1 0.3 56
2017-12-09 11:00:00 7.4 24 Oeste 46 Oeste 0 980.6 1.1 70
2017-12-09 10:00:00 5.2 30 Oeste 42 Oeste 0 979.7 1.2 81
2017-12-09 09:00:00 3.2 26 Oeste 36 Oeste 0 979.8 1.3 89
2017-12-09 08:00:00 3.9 25 Oeste 40 Oeste 0 979.5 0.9 84
2017-12-09 07:00:00 4.3 30 Oeste 54 Oeste 0 978.5 -0.4 84
2017-12-09 06:00:00 4.4 35 Oeste 57 Oeste 0 978.5 -0.7 85
2017-12-09 05:00:00 5 42 Oeste 62 Oeste 0 978.6 -0.9 82
2017-12-09 04:00:00 4.9 36 Oeste 52 Oeste 0 978.9 -0.6 84
2017-12-09 03:00:00 5.1 38 Oeste 54 Oeste 0 979.2 -0.4 83
2017-12-09 02:00:00 5.4 36 Oeste 48 Oeste 0 979.5 -0.4 83
2017-12-09 01:00:00 5.4 27 Oeste 45 Oeste 0 979.5 -0.3 82
2017-12-09 00:00:00 5 22 Sudoeste 38 Sudoeste 0 979.6 -0.1 84
2017-12-08 23:00:00 4.9 18 Sudoeste 48 Oeste 0 979.9 0.1 82
2017-12-08 22:00:00 7.3 32 Oeste 48 Oeste 0 979.8 0.1 73
2017-12-08 21:00:00 7.6 31 Oeste 45 Oeste 0 979.7 0.2 79
2017-12-08 20:00:00 8.2 26 Oeste 51 Oeste 0 979.8 0.3 79
2017-12-08 19:00:00 9.6 32 Oeste 44 Oeste 0 979.7 0.5 74
2017-12-08 18:00:00 10.1 25 Oeste 46 Oeste 0 979.5 0 72
2017-12-08 17:00:00 11 28 Oeste 53 Oeste 0 979.5 -0.4 69
2017-12-08 16:00:00 11.2 27 Oeste 52 Oeste 0 979.2 -1.3 66
2017-12-08 15:00:00 11.2 35 Oeste 56 Oeste 0 979.5 -1.6 65
2017-12-08 14:00:00 11.1 37 Oeste 59 Oeste 0 979.9 -1.6 66
2017-12-08 13:00:00 9.8 30 Oeste 53 Oeste 0 980.5 -1.4 66
2017-12-08 12:00:00 6.9 22 Sudoeste 42 Oeste 0 981.1 -1.1 70
2017-12-08 11:00:00 5 22 Oeste 37 Oeste 0 981.5 -0.5 72
2017-12-08 10:00:00 2.1 13 Sudoeste 27 Oeste 0 981.9 -0.1 82
2017-12-08 09:00:00 0 6 Oeste 23 Oeste 0 982.2 -0.1 88
2017-12-08 08:00:00 1.1 14 Oeste 19 Oeste 0 982 -0.7 82
2017-12-08 07:00:00 2.4 10 Oeste 19 Oeste 0 982 -1.2 79
2017-12-08 06:00:00 1.8 13 Oeste 17 Oeste 0 982.3 -1.6 83
2017-12-08 05:00:00 0.1 9 Sudoeste 18 Sudoeste 0 982.7 -1.2 87
2017-12-08 04:00:00 1.4 9 Sudoeste 24 Sudoeste 0 983.2 -1.3 85
2017-12-08 03:00:00 0.5 4 Oeste 10 Oeste 0 983.9 -0.9 90
2017-12-08 02:00:00 -1.1 3 Sudoeste 6 Oeste 0 983.9 -1.3 87
2017-12-08 01:00:00 -1.4 5 Oeste 6 Oeste 0 984.5 -0.9 91
2017-12-08 00:00:00 -1 3 Noroeste 5 Noroeste 0 984.8 -1 88
2017-12-07 23:00:00 0 2 Oeste 7 Oeste 0 985.2 -0.9 85
2017-12-07 22:00:00 1.6 7 Oeste 15 Oeste 0 985.4 -0.6 82
2017-12-07 21:00:00 0.2 8 Oeste 11 Oeste 0 985.8 0.1 85
2017-12-07 20:00:00 -0.2 6 Oeste 9 Oeste 0 986.1 0.4 84
2017-12-07 19:00:00 0.9 4 Oeste 8 Oeste 0 986 0.1 80
2017-12-07 18:00:00 3.2 3 Sudeste 8 Este 0 985.7 -0.6 78
2017-12-07 17:00:00 5.2 5 Este 9 Este 0 985.7 -1.2 70
2017-12-07 16:00:00 6.1 5 Este 9 Sudeste 0 985.9 -1.7 69
2017-12-07 15:00:00 6.2 3 Este 9 Este 0 986.3 -2.2 70
2017-12-07 14:00:00 5.2 2 Sudeste 8 Nordeste 0 986.9 -2.4 74
2017-12-07 13:00:00 3.9 3 Sudeste 7 Sudoeste 0 987.6 -1.4 79
2017-12-07 12:00:00 2.2 3 Sudeste 9 Este 0 988.5 0.3 84
2017-12-07 11:00:00 1 2 Sudeste 4 Sudeste 0 989.3 1.2 90
2017-12-07 10:00:00 -0.6 0 Calma 4 Nordeste 0 989 1 93
2017-12-07 09:00:00 -2.3 3 Noroeste 4 Noroeste 0 988.2 0.5 95
2017-12-07 08:00:00 -2.7 0 Calma 8 Oeste 0 988.1 -0.1 94
2017-12-07 07:00:00 -2.8 6 Oeste 8 Oeste 0 988 -0.4 96
2017-12-07 06:00:00 -3.1 0 Calma 6 Oeste 0 987.7 -0.9 93
2017-12-07 05:00:00 -2.8 6 Oeste 8 Oeste 0 988.2 -0.5 93
2017-12-07 04:00:00 -3.4 2 Sudoeste 6 Oeste 0 988.4 -0.6 89
2017-12-07 03:00:00 -2.6 0 Calma 6 Noroeste 0 988.6 -0.8 90
2017-12-07 02:00:00 -2.1 5 Noroeste 9 Noroeste 0 988.7 -0.7 87
2017-12-07 01:00:00 -1.6 6 Noroeste 12 Noroeste 0 989 -0.4 85
2017-12-07 00:00:00 -2.6 5 Noroeste 7 Noroeste 0 989.4 0.3 90
2017-12-06 23:00:00 -1.7 2 Noroeste 4 Oeste 0 989.4 0.3 88
2017-12-06 22:00:00 -1.5 0 Calma 4 Noroeste 0 989.4 0.5 86
2017-12-06 21:00:00 -0.7 0 Calma 4 Oeste 0 989.1 0.2 84
2017-12-06 20:00:00 -0.1 3 Noroeste 5 Oeste 0 989.1 0.4 80
2017-12-06 19:00:00 1.2 4 Oeste 7 Oeste 0 988.9 0.1 75
2017-12-06 18:00:00 4.4 2 Este 9 Este 0 988.9 -0.2 70
2017-12-06 17:00:00 7.2 5 Sudeste 10 Este 0 988.7 -1 62
2017-12-06 16:00:00 7.9 5 Sudeste 12 Sudeste 0 988.8 -1.8 61
2017-12-06 15:00:00 7.5 3 Nordeste 9 Este 0 989.1 -2.3 63
2017-12-06 14:00:00 6.9 5 Sudeste 10 Sudeste 0 989.7 -2.1 65
2017-12-06 13:00:00 5.3 4 Sudeste 10 Sudeste 0 990.6 -1.1 71
2017-12-06 12:00:00 4.3 4 Sudeste 9 Este 0 991.4 -0.1 76
2017-12-06 11:00:00 1.7 3 Sur 7 Sur 0 991.8 0.5 89
2017-12-06 10:00:00 -0.9 0 Calma 4 Oeste 0 991.7 0.6 97
2017-12-06 09:00:00 -3 3 Oeste 5 Oeste 0 991.5 0.3 96
2017-12-06 08:00:00 -3.4 0 Calma 3 Este 0 991.3 0.1 94
2017-12-06 07:00:00 -3 3 Nordeste 5 Norte 0 991.1 -0.3 94
2017-12-06 06:00:00 -3.1 4 Noroeste 8 Norte 0 991.2 -0.3 93
2017-12-06 05:00:00 -3.2 0 Calma 7 Norte 0 991.2 -0.3 90
2017-12-06 04:00:00 -2.9 5 Noroeste 7 Noroeste 0 991.4 -0.4 91
2017-12-06 03:00:00 -2.1 3 Norte 4 Norte 0 991.5 -0.5 92
2017-12-06 02:00:00 -1.5 2 Nordeste 4 Nordeste 0 991.5 -0.3 90
2017-12-06 01:00:00 -1.4 3 Norte 6 Norte 0 991.8 0 88
2017-12-06 00:00:00 -1 3 Noroeste 7 Noroeste 0 992 0.3 88
2017-12-05 23:00:00 -0.7 3 Noroeste 6 Noroeste 0 991.8 0.2 86
2017-12-05 22:00:00 -0.1 3 Noroeste 4 Noroeste 0 991.8 0.6 85
2017-12-05 21:00:00 0.4 3 Noroeste 4 Noroeste 0 991.7 0.6 82
2017-12-05 20:00:00 1.8 0 Calma 5 Norte 0 991.6 0.7 76
2017-12-05 19:00:00 3.6 3 Norte 7 Norte 0 991.2 0.4 74
2017-12-05 18:00:00 5.4 5 Noroeste 12 Noroeste 0 991.1 0.1 68
2017-12-05 17:00:00 8.3 8 Noroeste 17 Oeste 0 990.9 -0.6 57
2017-12-05 16:00:00 9 11 Oeste 20 Oeste 0 990.8 -1.3 55
2017-12-05 15:00:00 8.9 15 Oeste 24 Oeste 0 991 -1.9 55
2017-12-05 14:00:00 8.5 13 Oeste 24 Oeste 0 991.5 -1.7 59
2017-12-05 13:00:00 7 13 Oeste 26 Oeste 0 992.1 -0.7 65
2017-12-05 12:00:00 5.9 12 Oeste 20 Sudoeste 0 992.9 0.5 76
2017-12-05 11:00:00 3.4 5 Norte 17 Oeste 0 993.2 1.2 86
2017-12-05 10:00:00 2.6 10 Oeste 16 Oeste 0 992.8 1.2 91
2017-12-05 09:00:00 -0.5 6 Oeste 14 Oeste 0 992.4 1.1 95
2017-12-05 08:00:00 -1.4 7 Oeste 13 Oeste 0 992 0.7 95
2017-12-05 07:00:00 -0.2 4 Noroeste 11 Noroeste 0 991.6 0.1 98
2017-12-05 06:00:00 -0.9 8 Oeste 15 Oeste 0 991.3 -0.3 98
2017-12-05 05:00:00 -0.4 9 Oeste 15 Oeste 0 991.3 -0.2 97
2017-12-05 04:00:00 -0.4 13 Oeste 16 Oeste 0 991.5 -0.2 95
2017-12-05 03:00:00 0.4 13 Oeste 20 Oeste 0 991.6 -0.2 96
2017-12-05 02:00:00 0.7 4 Oeste 18 Sudoeste 0 991.5 -0.1 95
2017-12-05 01:00:00 0.3 12 Sudoeste 19 Oeste 0 991.7 0.4 94
2017-12-05 00:00:00 0.6 14 Oeste 18 Oeste 0 991.8 0.9 92
2017-12-04 23:00:00 0.3 9 Oeste 21 Sudoeste 0 991.6 0.8 90
2017-12-04 22:00:00 3.2 17 Sudoeste 24 Sudoeste 0 991.3 1 83
2017-12-04 21:00:00 2.9 15 Oeste 22 Oeste 0 990.9 0.9 86
2017-12-04 20:00:00 4.5 13 Sudoeste 19 Oeste 0 990.8 1.2 78
2017-12-04 19:00:00 4.5 13 Oeste 18 Oeste 0 990.3 0.8 78
2017-12-04 18:00:00 5.4 9 Oeste 14 Oeste 0 990 0.4 68
2017-12-04 17:00:00 9.2 11 Oeste 24 Oeste 0 989.6 -0.5 59
2017-12-04 16:00:00 10.2 14 Oeste 24 Sudoeste 0 989.5 -0.9 58
2017-12-04 15:00:00 9.5 10 Oeste 21 Oeste 0 989.6 -1.2 62
2017-12-04 14:00:00 8.8 6 Sudoeste 17 Sudoeste 0 990.1 -0.8 64
2017-12-04 13:00:00 7.2 8 Oeste 18 Oeste 0 990.4 0.1 70
2017-12-04 12:00:00 5.7 4 Sudeste 10 Sur 0 990.8 1 72
2017-12-04 11:00:00 3 3 Sudeste 8 Sudeste 0 990.9 1.6 72
2017-12-04 10:00:00 0.1 4 Sur 7 Sur 0 990.3 1.7 81
2017-12-04 09:00:00 -3.4 0 Calma 5 Sur 0 989.8 1.7 87
2017-12-04 08:00:00 -4.1 4 Oeste 7 Oeste 0 989.3 1.6 85
2017-12-04 07:00:00 -3.9 4 Sudoeste 6 Oeste 0 988.6 1 85
2017-12-04 06:00:00 -4 3 Oeste 6 Oeste 0 988.1 0.8 86
2017-12-04 05:00:00 -3.3 3 Sudoeste 7 Oeste 0 987.7 0.8 85
2017-12-04 04:00:00 -2.9 4 Oeste 6 Noroeste 0 987.6 0.9 81
2017-12-04 03:00:00 -2.5 3 Sudoeste 13 Noroeste 0 987.3 1 72
2017-12-04 02:00:00 -1.9 5 Nordeste 23 Oeste 0 986.9 1.4 70
2017-12-04 01:00:00 -0.7 15 Oeste 25 Oeste 0 986.7 1.6 76
2017-12-04 00:00:00 -1 13 Oeste 24 Oeste 0 986.3 1.9 67
2017-12-03 23:00:00 -0.8 15 Oeste 23 Oeste 0 985.5 1.5 66
2017-12-03 22:00:00 -0.9 11 Oeste 22 Oeste 0 985.1 1.6 62
2017-12-03 21:00:00 0.3 17 Sudoeste 23 Sudoeste 0 984.4 1.4 56
2017-12-03 20:00:00 1 15 Oeste 35 Oeste 0 984 1.4 52
2017-12-03 19:00:00 1.3 19 Oeste 27 Oeste 0 983.5 1 45
2017-12-03 18:00:00 3.5 17 Oeste 35 Oeste 0 983 0.5 41
2017-12-03 17:00:00 5.3 23 Oeste 44 Oeste 0 982.6 0 36
2017-12-03 16:00:00 6.8 23 Oeste 40 Oeste 0 982.5 -0.5 32
2017-12-03 15:00:00 7.8 27 Oeste 42 Oeste 0 982.5 -0.9 27
2017-12-03 14:00:00 6.9 28 Oeste 41 Oeste 0 982.6 -0.5 30
2017-12-03 13:00:00 6.6 26 Oeste 39 Oeste 0 983 0.6 33
2017-12-03 12:00:00 4.7 25 Oeste 38 Oeste 0 983.4 2.1 40
2017-12-03 11:00:00 2.4 23 Oeste 37 Oeste 0 983.1 2.5 49
2017-12-03 10:00:00 -0.2 20 Oeste 36 Oeste 0 982.4 2.6 58
2017-12-03 09:00:00 -3 26 Oeste 34 Oeste 0 981.3 2.2 68
2017-12-03 08:00:00 -4.1 24 Oeste 37 Oeste 0 980.6 1.9 72
2017-12-03 07:00:00 -3.1 24 Oeste 37 Oeste 0 979.8 1.4 70
2017-12-03 06:00:00 -3 28 Oeste 40 Oeste 0 979.1 0.9 71
2017-12-03 05:00:00 -2.9 28 Oeste 39 Sudoeste 0 978.7 0.6 71
2017-12-03 04:00:00 -2.5 24 Oeste 36 Oeste 0 978.4 0.6 70
2017-12-03 03:00:00 -1.8 22 Oeste 35 Oeste 0 978.2 0.9 68
2017-12-03 02:00:00 -1.8 22 Oeste 36 Sudoeste 0 978.1 1.4 66
2017-12-03 01:00:00 -1.5 16 Sudoeste 34 Oeste 0 977.8 1.2 63
2017-12-03 00:00:00 -1.6 20 Oeste 31 Oeste 0 977.3 1.3 63
2017-12-02 23:00:00 -1.2 18 Oeste 34 Oeste 0 976.7 1.5 62
2017-12-02 22:00:00 -0.4 22 Oeste 37 Oeste 0 976.6 2.6 58
2017-12-02 21:00:00 0.5 24 Oeste 39 Oeste 0 976 3.2 51
2017-12-02 20:00:00 2.5 22 Oeste 48 Oeste 0 975.2 2.9 36
2017-12-02 19:00:00 3.9 32 Noroeste 59 Oeste 0 974 2 32
2017-12-02 18:00:00 4.4 38 Oeste 61 Oeste 0 972.8 0.8 33
2017-12-02 17:00:00 5.9 39 Oeste 59 Noroeste 0 972.3 -0.3 31
2017-12-02 16:00:00 7.2 37 Oeste 63 Oeste 0 972 -1.9 29
2017-12-02 15:00:00 7.7 39 Oeste 69 Oeste 0 972 -2.1 30
2017-12-02 14:00:00 7.4 41 Oeste 68 Oeste 0 972.6 -1.9 31
2017-12-02 13:00:00 7 41 Oeste 75 Oeste 0 973.9 -0.7 31
2017-12-02 12:00:00 6.4 40 Oeste 60 Oeste 0 974.1 -0.3 33
2017-12-02 11:00:00 3.9 33 Oeste 49 Oeste 0 974.5 0.5 51
2017-12-02 10:00:00 1.2 33 Oeste 47 Oeste 0 974.6 0.7 67
2017-12-02 09:00:00 -0.5 26 Oeste 41 Oeste 0 974.4 0.8 76
2017-12-02 08:00:00 -0.9 27 Oeste 43 Oeste 0 974 0.4 82
2017-12-02 07:00:00 -0.3 30 Oeste 45 Oeste 0 973.9 0.3 86
2017-12-02 06:00:00 -0.2 30 Oeste 50 Oeste 0 973.6 -0.3 90
2017-12-02 05:00:00 0.4 35 Oeste 54 Oeste 0 973.6 -0.6 89
2017-12-02 04:00:00 0.7 41 Oeste 59 Oeste 0 973.6 -0.9 89
2017-12-02 03:00:00 0.1 29 Oeste 49 Oeste 0 973.9 -0.7 91
2017-12-02 02:00:00 0.3 24 Sudoeste 51 Oeste 0 974.2 -0.3 89
2017-12-02 01:00:00 -0.5 29 Oeste 44 Oeste 0 974.5 0.2 90
2017-12-02 00:00:00 -0.7 30 Oeste 52 Oeste 0 974.6 0.5 83
2017-12-01 23:00:00 0.3 34 Oeste 51 Oeste 0 974.5 1.2 77
2017-12-01 22:00:00 0.1 23 Sudoeste 45 Oeste 0 974.3 1.7 78
2017-12-01 21:00:00 0.9 37 Oeste 54 Oeste 0 974.1 2.4 69
2017-12-01 20:00:00 0.8 38 Oeste 53 Oeste 0 973.3 2.4 67
2017-12-01 19:00:00 1.2 32 Oeste 52 Oeste 0 972.6 2.8 61
2017-12-01 18:00:00 2.6 28 Oeste 54 Oeste 0 971.7 2.7 49
2017-12-01 17:00:00 4.9 36 Oeste 59 Oeste 0 970.9 2 35
2017-12-01 16:00:00 6.3 37 Oeste 56 Oeste 0 969.8 0.6 35
2017-12-01 15:00:00 7.1 33 Oeste 62 Oeste 0 969 -0.9 35
2017-12-01 14:00:00 6.3 35 Oeste 71 Oeste 0 968.9 -0.6 51
2017-12-01 13:00:00 4.8 42 Oeste 61 Oeste 0 969.2 0.4 77
2017-12-01 12:00:00 4.2 24 Oeste 47 Oeste 0 969.9 1.5 88
2017-12-01 11:00:00 4.3 30 Oeste 55 Oeste 0.2 969.5 0.2 93
2017-12-01 10:00:00 5.8 23 Oeste 39 Oeste 0 968.8 -1 61
2017-12-01 09:00:00 4.4 18 Sudoeste 35 Sudoeste 0 968.4 -2.1 64
2017-12-01 08:00:00 2.9 18 Oeste 36 Sudoeste 0 969.3 -1.5 72
2017-12-01 07:00:00 2.5 17 Sudoeste 30 Sudoeste 0 969.8 -1.9 73
2017-12-01 06:00:00 2.4 23 Sudoeste 36 Oeste 0 970.5 -1.7 73
2017-12-01 05:00:00 2.1 25 Oeste 37 Oeste 0 970.8 -1.8 73
2017-12-01 04:00:00 2.3 14 Sudoeste 30 Oeste 0 971.7 -1.5 73
2017-12-01 03:00:00 1.8 19 Oeste 31 Oeste 0 972.2 -1.5 79
2017-12-01 02:00:00 1.5 18 Oeste 30 Oeste 0 972.6 -1.5 83
2017-12-01 01:00:00 1.5 17 Oeste 31 Oeste 0 973.2 -0.9 84
2017-12-01 00:00:00 2 20 Sudoeste 31 Sudoeste 0 973.7 -0.5 84
2017-11-30 23:00:00 1.8 14 Sudoeste 34 Oeste 0 974.1 0.8 79
2017-11-30 22:00:00 2.9 21 Oeste 34 Oeste 0 974.1 1.4 76
2017-11-30 21:00:00 4.6 24 Oeste 43 Oeste 0 974.2 1.7 70
2017-11-30 20:00:00 5.2 30 Oeste 50 Oeste 0 973.3 1.5 64
2017-11-30 19:00:00 5.4 30 Oeste 41 Oeste 0 972.7 1.3 59
2017-11-30 18:00:00 6.3 27 Oeste 44 Oeste 0 972.5 1.4 53
2017-11-30 17:00:00 8.2 36 Oeste 50 Oeste 0 971.8 0.5 47
2017-11-30 16:00:00 9.2 33 Oeste 51 Oeste 0 971.4 -0.3 45
2017-11-30 15:00:00 9.9 29 Oeste 42 Oeste 0 971.1 -0.7 39
2017-11-30 14:00:00 10 22 Oeste 44 Oeste 0 971.3 -0.6 32
2017-11-30 13:00:00 9.2 21 Oeste 35 Oeste 0 971.7 0.2 38
2017-11-30 12:00:00 7.7 25 Oeste 38 Oeste 0 971.8 0.8 46
2017-11-30 11:00:00 5.4 24 Oeste 35 Oeste 0 971.9 1.6 59
2017-11-30 10:00:00 1.7 19 Oeste 30 Oeste 0 971.5 1.7 78
2017-11-30 09:00:00 -0.8 17 Sudoeste 27 Oeste 0 971 1.4 86
2017-11-30 08:00:00 -2.6 15 Oeste 22 Oeste 0 970.3 1.1 83
2017-11-30 07:00:00 -2.1 15 Oeste 22 Oeste 0 969.8 0.8 87
2017-11-30 06:00:00 -2.6 13 Oeste 23 Oeste 0 969.6 1 88
2017-11-30 05:00:00 -1.2 17 Oeste 27 Sudoeste 0 969.2 1.3 86
2017-11-30 04:00:00 -0.6 17 Oeste 27 Sudoeste 0 969 1.3 87
2017-11-30 03:00:00 0.1 18 Oeste 33 Sudoeste 0 968.6 1.3 86
2017-11-30 02:00:00 0.9 20 Oeste 39 Oeste 0 967.9 1.3 83
2017-11-30 01:00:00 1.3 15 Sudoeste 35 Oeste 0 967.7 0.9 82
2017-11-30 00:00:00 2.3 21 Oeste 39 Oeste 0 967.3 0.9 79
2017-11-29 23:00:00 3.1 32 Oeste 45 Oeste 0 966.6 0.6 74
2017-11-29 22:00:00 3.4 21 Oeste 35 Oeste 0 966.8 1.6 73
2017-11-29 21:00:00 4 14 Oeste 33 Sudoeste 0 966.4 1.6 72
2017-11-29 20:00:00 5.1 17 Sudoeste 42 Oeste 0 966 1.9 68
2017-11-29 19:00:00 6 27 Oeste 40 Oeste 0 965.2 1.4 65
2017-11-29 18:00:00 7.5 23 Oeste 41 Oeste 0 964.8 1.1 61
2017-11-29 17:00:00 9.8 26 Oeste 42 Oeste 0 964.1 0.2 53
2017-11-29 16:00:00 10.6 27 Oeste 46 Oeste 0 963.8 -0.6 53
2017-11-29 15:00:00 11.1 32 Oeste 47 Oeste 0 963.7 -1.4 52
2017-11-29 14:00:00 11.1 28 Oeste 46 Oeste 0 963.9 -1.6 52
2017-11-29 13:00:00 10.8 30 Oeste 42 Oeste 0 964.4 -1.3 53
2017-11-29 12:00:00 9.6 25 Oeste 37 Oeste 0 965.1 -0.4 61
2017-11-29 11:00:00 7 21 Oeste 33 Oeste 0 965.5 0.6 72
2017-11-29 10:00:00 4.2 12 Oeste 21 Oeste 0 965.7 0.6 82
2017-11-29 09:00:00 1 10 Oeste 17 Oeste 0 965.5 0.4 89
2017-11-29 08:00:00 -0.5 11 Oeste 19 Oeste 0 964.9 -0.5 89
2017-11-29 07:00:00 0.2 12 Oeste 25 Oeste 0 965.1 -1 84
2017-11-29 06:00:00 1.4 14 Oeste 28 Oeste 0 965.1 -1.6 81
2017-11-29 05:00:00 3.2 20 Oeste 32 Oeste 0 965.4 -1.9 74
2017-11-29 04:00:00 3.3 14 Oeste 23 Oeste 0 966.1 -1.8 74
2017-11-29 03:00:00 4.3 18 Oeste 25 Oeste 0 966.7 -1.8 70
2017-11-29 02:00:00 3.6 16 Oeste 23 Oeste 0 967.3 -1.5 73
2017-11-29 01:00:00 5.2 17 Oeste 25 Oeste 0 967.9 -1.2 67
2017-11-29 00:00:00 4.4 10 Sudoeste 21 Oeste 0 968.5 -0.8 70
2017-11-28 23:00:00 2.5 14 Oeste 27 Sudoeste 0 968.8 -0.9 77
2017-11-28 22:00:00 3.7 15 Sudoeste 23 Sudoeste 0 969.1 -0.9 76
2017-11-28 21:00:00 4.1 16 Oeste 21 Oeste 0 969.3 -0.6 70
2017-11-28 20:00:00 4.8 15 Oeste 22 Oeste 0 969.7 -0.6 68
2017-11-28 19:00:00 4.7 11 Oeste 17 Oeste 0 970 -0.9 64
2017-11-28 18:00:00 6.2 8 Oeste 22 Oeste 0 969.9 -1.9 58
2017-11-28 17:00:00 9.7 14 Oeste 26 Oeste 0 970.3 -2.3 51
2017-11-28 16:00:00 10.7 19 Oeste 34 Oeste 0 970.9 -3 48
2017-11-28 15:00:00 10.6 19 Oeste 32 Oeste 0 971.8 -3.5 49
2017-11-28 14:00:00 9.9 24 Oeste 37 Oeste 0 972.6 -3.7 53
2017-11-28 13:00:00 8.5 20 Oeste 36 Oeste 0 973.9 -2.8 59
2017-11-28 12:00:00 6.4 24 Oeste 35 Oeste 0 975.3 -1.4 67
2017-11-28 11:00:00 3.6 18 Oeste 24 Oeste 0 976.3 -0.7 78
2017-11-28 10:00:00 0.1 5 Sudoeste 12 Sudoeste 0 976.7 -0.3 90
2017-11-28 09:00:00 -2.2 5 Sudoeste 9 Oeste 0 976.7 -0.4 94
2017-11-28 08:00:00 -2.7 7 Oeste 14 Oeste 0 977 -0.7 91
2017-11-28 07:00:00 -1.4 11 Oeste 15 Oeste 0 977 -1.2 89
2017-11-28 06:00:00 0.2 10 Oeste 15 Oeste 0 977.1 -1.9 85
2017-11-28 05:00:00 -1 9 Oeste 13 Oeste 0 977.7 -1.9 86
2017-11-28 04:00:00 -0.8 7 Oeste 9 Oeste 0 978.2 -1.9 83
2017-11-28 03:00:00 -0.2 4 Oeste 8 Noroeste 0 979 -1.6 83
2017-11-28 02:00:00 1.6 4 Noroeste 14 Noroeste 0 979.6 -1.4 80
2017-11-28 01:00:00 2.5 10 Noroeste 17 Norte 0 980.1 -1.5 79
2017-11-28 00:00:00 2.9 7 Norte 14 Norte 0 980.6 -1.4 76
2017-11-27 23:00:00 3.3 6 Norte 12 Norte 0 981 -1.2 75
2017-11-27 22:00:00 3.2 5 Noroeste 11 Norte 0 981.6 -0.8 75
2017-11-27 21:00:00 2.5 4 Norte 8 Noroeste 0 982 -0.5 79
2017-11-27 20:00:00 3 3 Noroeste 6 Norte 0 982.2 -0.5 75
2017-11-27 19:00:00 3.8 3 Noroeste 4 Noroeste 0 982.4 -0.8 70
2017-11-27 18:00:00 5.5 4 Sudeste 10 Este 0 982.5 -1.2 66
2017-11-27 17:00:00 7.6 5 Este 8 Este 0 982.7 -1.7 60
2017-11-27 16:00:00 8.2 5 Este 11 Este 0 983.2 -2.3 59
2017-11-27 15:00:00 8.4 5 Nordeste 9 Este 0 983.7 -2.6 57
2017-11-27 14:00:00 7.9 3 Norte 9 Sudoeste 0 984.4 -2.5 58
2017-11-27 13:00:00 7.4 3 Sudeste 9 Sur 0 985.5 -1.6 62
2017-11-27 12:00:00 5.9 3 Sur 11 Sur 0 986.3 -0.6 71
2017-11-27 11:00:00 3.7 2 Noroeste 8 Noroeste 0 986.9 0.3 82
2017-11-27 10:00:00 0.9 3 Norte 7 Sudeste 0 987.1 0.8 89
2017-11-27 09:00:00 -0.8 0 Calma 6 Noroeste 0 986.9 0.9 91
2017-11-27 08:00:00 -2.3 2 Noroeste 5 Noroeste 0 986.6 0.9 91
2017-11-27 07:00:00 -2.1 3 Noroeste 6 Oeste 0 986.3 0.3 89
2017-11-27 06:00:00 -1.5 4 Oeste 8 Oeste 0 986 0 89
2017-11-27 05:00:00 -0.4 6 Oeste 8 Sudoeste 0 985.7 -0.3 90
2017-11-27 04:00:00 0.6 3 Noroeste 14 Oeste 0 986 -0.3 85
2017-11-27 03:00:00 0.8 11 Oeste 20 Sudoeste 0 986 -0.5 90
2017-11-27 02:00:00 0.9 12 Oeste 23 Oeste 0 986 -0.4 87
2017-11-27 01:00:00 2.5 17 Oeste 25 Sudoeste 0 986.3 0.4 82
2017-11-27 00:00:00 2.8 17 Oeste 26 Sudoeste 0 986.5 0.9 80
2017-11-26 23:00:00 3 15 Oeste 25 Oeste 0 986.4 0.9 80
2017-11-26 22:00:00 3.1 18 Oeste 28 Oeste 0 985.9 0.8 78
2017-11-26 21:00:00 3.7 17 Oeste 27 Sudoeste 0 985.6 0.5 76
2017-11-26 20:00:00 5.3 15 Sudoeste 32 Oeste 0 985.5 0.3 72
2017-11-26 19:00:00 6.3 21 Sudoeste 31 Oeste 0 985.1 0 65
2017-11-26 18:00:00 8.1 21 Oeste 44 Oeste 0 985.1 0.3 57
2017-11-26 17:00:00 10.6 33 Oeste 48 Oeste 0 985.2 0.2 46
2017-11-26 16:00:00 11.7 30 Oeste 44 Oeste 0 985.1 -0.2 42
2017-11-26 15:00:00 11.9 27 Oeste 45 Oeste 0 984.8 -1.1 41
2017-11-26 14:00:00 12.1 24 Oeste 43 Oeste 0 985 -0.8 42
2017-11-26 13:00:00 11.6 23 Oeste 42 Oeste 0 985.3 0 44
2017-11-26 12:00:00 10.2 30 Oeste 44 Oeste 0 985.9 1.2 53
2017-11-26 11:00:00 8.4 31 Oeste 45 Oeste 0 985.8 2 63
2017-11-26 10:00:00 6.4 26 Oeste 41 Oeste 0 985.3 2 73
2017-11-26 09:00:00 4.4 24 Sudoeste 46 Oeste 0 984.7 2 80
2017-11-26 08:00:00 3.8 29 Oeste 37 Oeste 0 983.8 1.7 80
2017-11-26 07:00:00 3.2 22 Oeste 35 Oeste 0 983.3 1.2 83
2017-11-26 06:00:00 3.5 19 Sudoeste 51 Sudoeste 0 982.7 0.7 82
2017-11-26 05:00:00 4.1 30 Oeste 43 Oeste 0 982.1 1.1 79
2017-11-26 04:00:00 4.1 21 Oeste 42 Oeste 0 982.1 0.9 79
2017-11-26 03:00:00 3.8 19 Oeste 44 Oeste 0 982 0.9 77
2017-11-26 02:00:00 5.1 35 Oeste 50 Oeste 0 981 -0.1 70
2017-11-26 01:00:00 4.8 25 Oeste 42 Oeste 0 981.2 0.4 69
2017-11-26 00:00:00 4.8 22 Oeste 50 Oeste 0 981.1 0.8 68
2017-11-25 23:00:00 5.5 21 Oeste 44 Oeste 0 981.1 1.8 68
2017-11-25 22:00:00 7 26 Oeste 42 Oeste 0 980.8 2.1 61
2017-11-25 21:00:00 7.6 32 Oeste 53 Oeste 0 980.3 2.3 62
2017-11-25 20:00:00 8 35 Oeste 50 Oeste 0 979.3 1.8 61
2017-11-25 19:00:00 9.5 31 Oeste 50 Oeste 0 978.7 2 56
2017-11-25 18:00:00 10.3 33 Oeste 61 Oeste 0 978 2 56
2017-11-25 17:00:00 12.2 35 Oeste 60 Oeste 0 977.5 1.7 54
2017-11-25 16:00:00 13.4 48 Oeste 66 Oeste 0 976.7 1.1 50
2017-11-25 15:00:00 14.9 45 Oeste 64 Oeste 0 976 -0.4 52
2017-11-25 14:00:00 14.9 45 Oeste 67 Oeste 0 975.8 -0.4 57
2017-11-25 13:00:00 14.1 44 Oeste 66 Oeste 0 975.6 -0.1 60
2017-11-25 12:00:00 13.3 36 Oeste 55 Oeste 0 976.4 1.1 64
2017-11-25 11:00:00 12.7 30 Oeste 43 Oeste 0 976.2 1.6 75
2017-11-25 10:00:00 11.3 28 Oeste 42 Oeste 0 975.7 1.6 84
2017-11-25 09:00:00 9.7 22 Oeste 35 Oeste 0 975.3 1.3 87
2017-11-25 08:00:00 8.9 10 Sudoeste 22 Sudoeste 0 974.6 0.7 74
2017-11-25 07:00:00 9.5 12 Oeste 18 Oeste 0 974.1 0 70
2017-11-25 06:00:00 8.5 6 Sudoeste 10 Sudoeste 0 974 -0.5 73
2017-11-25 05:00:00 8.7 3 Oeste 6 Sudoeste 0 973.9 -0.9 71
2017-11-25 04:00:00 8.6 3 Oeste 7 Norte 0 974.1 -0.9 70
2017-11-25 03:00:00 9.3 3 Noroeste 5 Noroeste 0 974.5 -1 68
2017-11-25 02:00:00 9.2 3 Oeste 8 Oeste 0 974.8 -0.7 67
2017-11-25 01:00:00 9.6 2 Norte 7 Oeste 0 975 -0.8 67
2017-11-25 00:00:00 9.5 4 Norte 6 Norte 0 975.5 -0.6 68
2017-11-24 23:00:00 10.5 4 Norte 6 Nordeste 0 975.5 -0.1 65
2017-11-24 22:00:00 10.6 3 Noroeste 7 Norte 0 975.8 0.1 65
2017-11-24 21:00:00 12.4 5 Noroeste 12 Norte 0 976.1 0.8 61
2017-11-24 20:00:00 13.1 3 Sudoeste 5 Oeste 0 975.6 0.2 59
2017-11-24 19:00:00 13.8 0 Calma 5 Noroeste 0 975.7 0.5 56
2017-11-24 18:00:00 15.3 4 Este 11 Nordeste 0 975.3 -0.2 52
2017-11-24 17:00:00 17.4 7 Norte 13 Nordeste 0 975.4 -0.6 49
2017-11-24 16:00:00 18.5 4 Oeste 18 Oeste 0 975.2 -1 44
2017-11-24 15:00:00 19 11 Oeste 20 Oeste 0 975.5 -1.3 42
2017-11-24 14:00:00 19.2 11 Oeste 18 Oeste 0 976 -1.5 39
2017-11-24 13:00:00 17.2 4 Este 9 Nordeste 0 976.2 -1.3 43
2017-11-24 12:00:00 15.2 4 Nordeste 8 Nordeste 0 976.8 -0.3 53
2017-11-24 11:00:00 13.7 4 Este 9 Nordeste 0 977.5 1.1 58
2017-11-24 10:00:00 10.8 3 Norte 8 Este 0 977.5 1.6 66
2017-11-24 09:00:00 9 2 Oeste 11 Sur 0 977.1 0.6 73
2017-11-24 08:00:00 9.1 5 Sur 11 Este 0 976.4 0.1 72
2017-11-24 07:00:00 9.6 4 Nordeste 11 Norte 0 975.9 -0.3 69
2017-11-24 06:00:00 8.9 6 Oeste 10 Oeste 0 976.5 0.1 72
2017-11-24 05:00:00 7.5 2 Norte 8 Sur 0 976.3 -0.3 75
2017-11-24 04:00:00 8.2 0 Calma 6 Sudeste 0 976.2 -0.8 72
2017-11-24 03:00:00 10.3 3 Norte 11 Noroeste 0 976.4 -0.4 66
2017-11-24 02:00:00 10.1 6 Norte 13 Norte 0 976.6 -0.2 64
2017-11-24 01:00:00 6.7 4 Noroeste 10 Nordeste 0 977 0.4 77
2017-11-24 00:00:00 7.8 6 Noroeste 9 Noroeste 0 976.8 0.4 73
2017-11-23 23:00:00 7.6 4 Noroeste 6 Oeste 0 976.8 0.6 74
2017-11-23 22:00:00 8.7 0 Calma 6 Norte 0 976.6 0.8 69
2017-11-23 21:00:00 8.8 3 Norte 7 Noroeste 0 976.4 0.9 64
2017-11-23 20:00:00 9.3 4 Noroeste 6 Noroeste 0 976.2 1.2 65
2017-11-23 19:00:00 10 3 Norte 6 Oeste 0 975.8 1.2 65
2017-11-23 18:00:00 12.3 3 Este 7 Este 0 975.5 1.1 60
2017-11-23 17:00:00 14.9 6 Este 13 Este 0 975 0.2 53
2017-11-23 16:00:00 16.4 8 Este 12 Nordeste 0 974.6 -0.7 47
2017-11-23 15:00:00 16.3 7 Este 16 Este 0 974.4 -1.5 49
2017-11-23 14:00:00 15.9 9 Sudeste 15 Este 0 974.8 -1.2 50
2017-11-23 13:00:00 14.7 7 Nordeste 16 Nordeste 0 975.3 -0.1 56
2017-11-23 12:00:00 12.1 9 Nordeste 21 Norte 0 975.9 1.2 68
2017-11-23 11:00:00 10.1 6 Norte 16 Nordeste 0 976 2.2 73
2017-11-23 10:00:00 8.4 6 Norte 16 Nordeste 0 975.4 1.7 83
2017-11-23 09:00:00 5.6 6 Norte 12 Norte 0 974.7 1.1 87
2017-11-23 08:00:00 4.4 6 Nordeste 11 Nordeste 0 973.8 0.7 87
2017-11-23 07:00:00 6.6 4 Norte 15 Noroeste 0 973.7 0.6 85
2017-11-23 06:00:00 7.3 8 Norte 16 Norte 0 973.6 0.5 85
2017-11-23 05:00:00 7.4 4 Norte 15 Norte 0 973.1 0.4 84
2017-11-23 04:00:00 7.1 6 Norte 14 Norte 0 973.1 0.2 84
2017-11-23 03:00:00 7.2 6 Norte 13 Norte 0 973.1 0.2 82
2017-11-23 02:00:00 7.4 6 Norte 13 Nordeste 0 972.7 0.1 82
2017-11-23 01:00:00 7.4 6 Norte 16 Norte 0 972.9 0.1 81
2017-11-23 00:00:00 7.7 7 Norte 17 Norte 0 972.9 0.8 74
2017-11-22 23:00:00 7.7 8 Norte 14 Norte 0 972.6 0.7 64
2017-11-22 22:00:00 8.2 8 Noroeste 14 Noroeste 0 972.8 1.1 59
2017-11-22 21:00:00 8.2 8 Norte 13 Norte 0 972.1 0.4 59
2017-11-22 20:00:00 7.5 6 Noroeste 8 Noroeste 0 971.9 -0.1 61
2017-11-22 19:00:00 8.3 3 Noroeste 8 Nordeste 0 971.7 -0.4 61
2017-11-22 18:00:00 10.2 6 Nordeste 10 Este 0 971.7 -0.7 58
2017-11-22 17:00:00 12.9 7 Este 15 Este 0 972 -0.9 51
2017-11-22 16:00:00 14.6 10 Este 15 Este 0 972.1 -1.5 44
2017-11-22 15:00:00 14 5 Nordeste 12 Nordeste 0 972.4 -2 46
2017-11-22 14:00:00 13.7 8 Este 13 Este 0 972.9 -2 51
2017-11-22 13:00:00 12.5 7 Este 14 Nordeste 0 973.6 -1.5 56
2017-11-22 12:00:00 10.8 9 Este 15 Este 0 974.4 -0.5 62
2017-11-22 11:00:00 9.3 5 Nordeste 8 Este 0 974.9 0.4 70
2017-11-22 10:00:00 6.1 2 Este 5 Este 0 975.1 0.4 82
2017-11-22 09:00:00 2.5 0 Calma 7 Oeste 0 974.9 -0.1 88
2017-11-22 08:00:00 1.1 4 Noroeste 8 Oeste 0 974.5 -0.8 89
2017-11-22 07:00:00 1.5 2 Noroeste 6 Sur 0 974.7 -1 87
2017-11-22 06:00:00 0.8 5 Sudoeste 6 Sudoeste 0 975 -1.1 84
2017-11-22 05:00:00 2 3 Norte 7 Norte 0 975.3 -1.1 83
2017-11-22 04:00:00 1.7 0 Calma 12 Norte 0 975.7 -1.2 77
2017-11-22 03:00:00 3.2 4 Norte 6 Norte 0 976.1 -1 80
2017-11-22 02:00:00 3.2 2 Sur 4 Sur 0 976.4 -0.9 76
2017-11-22 01:00:00 5.4 2 Noroeste 13 Norte 0 976.9 -0.5 67
2017-11-22 00:00:00 6.8 6 Noroeste 12 Norte 0 977.1 -0.1 66
2017-11-21 23:00:00 6.1 3 Norte 8 Norte 0 977.3 -0.3 67
2017-11-21 22:00:00 7 5 Norte 10 Noroeste 0 977.4 -0.2 63
2017-11-21 21:00:00 5.9 4 Norte 6 Norte 0 977.2 -0.2 67
2017-11-21 20:00:00 6.3 4 Norte 7 Norte 0 977.6 0.2 64
2017-11-21 19:00:00 9 4 Nordeste 8 Este 0 977.6 0 55
2017-11-21 18:00:00 10.8 0 Calma 8 Oeste 0 977.4 -0.5 47
2017-11-21 17:00:00 13.5 2 Sur 10 Sudoeste 0 977.4 -1.2 41
2017-11-21 16:00:00 14.5 4 Sur 10 Sudoeste 0 977.6 -1.9 39
2017-11-21 15:00:00 14.3 4 Sudoeste 9 Sur 0 977.9 -2.5 39
2017-11-21 14:00:00 13.7 5 Sudoeste 14 Sur 0 978.6 -2 39
2017-11-21 13:00:00 12.8 5 Sudoeste 12 Sudeste 0 979.5 -1 45
2017-11-21 12:00:00 11.2 5 Sudeste 11 Este 0 980.4 0 56
2017-11-21 11:00:00 9.5 4 Nordeste 13 Nordeste 0 980.6 0.7 62
2017-11-21 10:00:00 6.9 5 Nordeste 10 Nordeste 0 980.5 0.9 69
2017-11-21 09:00:00 2.5 2 Nordeste 7 Oeste 0 980.4 0.8 77
2017-11-21 08:00:00 2.2 6 Oeste 9 Oeste 0 979.9 0.4 78
2017-11-21 07:00:00 2.3 5 Oeste 9 Oeste 0 979.6 -0.1 77
2017-11-21 06:00:00 1.7 6 Oeste 8 Sudoeste 0 979.6 -0.4 78
2017-11-21 05:00:00 1.3 2 Oeste 6 Sudoeste 0 979.5 -0.5 77
2017-11-21 04:00:00 1.8 4 Oeste 7 Noroeste 0 979.7 -0.6 78
2017-11-21 03:00:00 2.3 4 Noroeste 10 Noroeste 0 980 -0.4 77
2017-11-21 02:00:00 3.5 6 Noroeste 9 Noroeste 0 980 -0.2 74
2017-11-21 01:00:00 3.8 5 Noroeste 8 Norte 0 980.3 0 73
2017-11-21 00:00:00 5.3 6 Noroeste 10 Noroeste 0 980.4 0 70
2017-11-20 23:00:00 3.8 5 Noroeste 7 Noroeste 0 980.2 0.1 74
2017-11-20 22:00:00 5.1 4 Noroeste 6 Noroeste 0 980.3 0.7 72
2017-11-20 21:00:00 6 5 Noroeste 8 Noroeste 0 980.4 1.1 68
2017-11-20 20:00:00 7.9 4 Norte 9 Norte 0 980.1 1.1 66
2017-11-20 19:00:00 8.8 4 Norte 14 Norte 0 979.6 0.7 64
2017-11-20 18:00:00 11.5 8 Norte 15 Norte 0 979.3 -0.1 56
2017-11-20 17:00:00 13.6 8 Oeste 15 Oeste 0 979 -0.9 37
2017-11-20 16:00:00 14.7 11 Oeste 22 Oeste 0 978.9 -1.9 34
2017-11-20 15:00:00 14.3 14 Oeste 25 Sudoeste 0 979.4 -2.2 35
2017-11-20 14:00:00 13.6 18 Oeste 26 Oeste 0 979.9 -2.1 38
2017-11-20 13:00:00 12.1 14 Oeste 22 Oeste 0 980.8 -0.8 42
2017-11-20 12:00:00 9.3 8 Sudoeste 15 Sudoeste 0 981.6 0.7 53
2017-11-20 11:00:00 7 7 Sudoeste 12 Sudoeste 0 982 1.3 68
2017-11-20 10:00:00 5.4 5 Sudoeste 10 Sudoeste 0 981.6 1 73
2017-11-20 09:00:00 2.9 3 Sur 9 Noroeste 0 980.9 0.4 88
2017-11-20 08:00:00 3.2 3 Noroeste 9 Norte 0 980.7 0.7 88
2017-11-20 07:00:00 1.9 6 Norte 10 Noroeste 0 980.6 0.7 92
2017-11-20 06:00:00 -0.3 3 Oeste 5 Nordeste 0 980.5 0.3 86
2017-11-20 05:00:00 0.1 3 Norte 6 Nordeste 0 980 -0.2 82
2017-11-20 04:00:00 1.6 4 Oeste 7 Oeste 0 979.9 -0.4 79
2017-11-20 03:00:00 1 4 Oeste 6 Oeste 0 980.2 0.1 84
2017-11-20 02:00:00 1.7 2 Oeste 5 Noroeste 0 980.2 0 82
2017-11-20 01:00:00 3 5 Noroeste 9 Noroeste 0 980.3 0.3 79
2017-11-20 00:00:00 2.8 2 Sudoeste 6 Oeste 0 980.1 0.5 74
2017-11-19 23:00:00 3.1 4 Oeste 6 Oeste 0 980.2 0.9 70
2017-11-19 22:00:00 4.4 3 Nordeste 5 Oeste 0 980 1 64
2017-11-19 21:00:00 5 0 Calma 5 Sudoeste 0 979.6 1.1 62
2017-11-19 20:00:00 6.7 4 Oeste 12 Noroeste 0 979.3 1.2 56
2017-11-19 19:00:00 7.2 7 Noroeste 13 Noroeste 0 979 0.9 58
2017-11-19 18:00:00 8.7 9 Noroeste 13 Oeste 0 978.5 0.3 48
2017-11-19 17:00:00 12.1 11 Oeste 20 Oeste 0 978.1 -0.6 39
2017-11-19 16:00:00 13.3 12 Oeste 20 Oeste 0 978.1 -1.3 36
2017-11-19 15:00:00 13.3 12 Oeste 22 Oeste 0 978.2 -1.8 40
2017-11-19 14:00:00 12.4 16 Oeste 28 Sudoeste 0 978.7 -1.6 47
2017-11-19 13:00:00 11.1 19 Oeste 30 Oeste 0 979.4 -0.6 52
2017-11-19 12:00:00 10.1 20 Oeste 31 Oeste 0 980 0.2 58
2017-11-19 11:00:00 7.6 16 Oeste 23 Oeste 0 980.3 0.9 77
2017-11-19 10:00:00 5.1 12 Oeste 19 Oeste 0 980 1.2 90
2017-11-19 09:00:00 3.3 4 Norte 21 Oeste 0 979.8 1 90
2017-11-19 08:00:00 2.2 13 Oeste 19 Oeste 0 979.4 0.5 94
2017-11-19 07:00:00 3.4 13 Oeste 22 Oeste 0 978.8 0 91
2017-11-19 06:00:00 2.9 13 Oeste 17 Oeste 0 978.8 -0.2 92
2017-11-19 05:00:00 2.4 8 Oeste 19 Oeste 0 978.9 0.1 92
2017-11-19 04:00:00 2.7 8 Oeste 12 Oeste 0 978.8 -0.1 92
2017-11-19 03:00:00 3.5 7 Oeste 12 Oeste 0 979 -0.2 89
2017-11-19 02:00:00 4.4 6 Oeste 10 Oeste 0 978.8 -0.2 86
2017-11-19 01:00:00 5.1 8 Noroeste 16 Oeste 0 978.9 0.1 84
2017-11-19 00:00:00 5 13 Oeste 17 Oeste 0 979.2 0.6 82
2017-11-18 23:00:00 6.4 14 Oeste 19 Oeste 0 979 0.7 80
2017-11-18 22:00:00 6.3 15 Oeste 18 Oeste 0 978.8 0.8 78
2017-11-18 21:00:00 5.9 5 Oeste 8 Oeste 0 978.6 1.1 74
2017-11-18 20:00:00 6.6 2 Norte 5 Oeste 0 978.3 1.1 69
2017-11-18 19:00:00 9.3 3 Norte 8 Norte 0 978 1.1 62
2017-11-18 18:00:00 11.3 6 Oeste 10 Noroeste 0 977.5 0.3 56
2017-11-18 17:00:00 14.5 10 Oeste 17 Oeste 0 977.2 -0.4 49
2017-11-18 16:00:00 15.2 9 Oeste 27 Oeste 0 976.9 -1.4 47
2017-11-18 15:00:00 14.7 10 Oeste 19 Oeste 0 977.2 -1.3 50
2017-11-18 14:00:00 13.9 8 Oeste 18 Oeste 0 977.6 -1.1 51
2017-11-18 13:00:00 12.2 7 Oeste 15 Sudoeste 0 978.3 -0.2 57
2017-11-18 12:00:00 11.1 4 Sur 10 Sudeste 0 978.5 0.3 61
2017-11-18 11:00:00 8.7 2 Oeste 10 Oeste 0 978.7 1 70
2017-11-18 10:00:00 5.7 0 Calma 7 Sur 0 978.5 1.1 82
2017-11-18 09:00:00 2 4 Sur 6 Sudeste 0 978.2 0.9 90
2017-11-18 08:00:00 1.7 4 Sur 13 Oeste 0 977.7 0.5 83
2017-11-18 07:00:00 2.8 7 Oeste 13 Oeste 0 977.4 0.2 89
2017-11-18 06:00:00 3 8 Oeste 14 Oeste 0 977.3 0.1 82
2017-11-18 05:00:00 3.5 6 Oeste 10 Noroeste 0 977.2 0.2 79
2017-11-18 04:00:00 4.3 6 Noroeste 10 Noroeste 0 977.2 -0.3 74
2017-11-18 03:00:00 2.1 5 Oeste 9 Noroeste 0 977.2 -0.3 76
2017-11-18 02:00:00 3.7 4 Sudoeste 9 Noroeste 0 977 -0.3 72
2017-11-18 01:00:00 5.5 4 Noroeste 13 Noroeste 0 977.5 0.3 65
2017-11-18 00:00:00 5.2 5 Oeste 9 Oeste 0 977.5 0.5 68
2017-11-17 23:00:00 4.7 2 Noroeste 6 Noroeste 0 977.3 0.4 67
2017-11-17 22:00:00 6 3 Norte 4 Norte 0 977.2 0.6 63
2017-11-17 21:00:00 7.5 0 Calma 5 Nordeste 0 977 0.6 59
2017-11-17 20:00:00 8.4 3 Sudeste 6 Noroeste 0 976.9 0.7 55
2017-11-17 19:00:00 9.1 4 Noroeste 8 Noroeste 0 976.6 0.3 51
2017-11-17 18:00:00 10.9 6 Oeste 10 Oeste 0 976.4 -0.2 48
2017-11-17 17:00:00 14.2 6 Sudoeste 11 Sudoeste 0 976.2 -1.2 41
2017-11-17 16:00:00 15.1 5 Sudoeste 13 Oeste 0 976.3 -1.7 38
2017-11-17 15:00:00 14.7 7 Sudoeste 16 Oeste 0 976.6 -2.2 39
2017-11-17 14:00:00 13.8 10 Oeste 24 Oeste 0 977.4 -1.7 41
2017-11-17 13:00:00 12.9 11 Sudoeste 19 Oeste 0 978 -1 42
2017-11-17 12:00:00 10.2 7 Sudoeste 13 Oeste 0 978.8 -0.1 49
2017-11-17 11:00:00 8.6 4 Sur 12 Sur 0 979.1 0.7 54
2017-11-17 10:00:00 5.6 3 Sur 6 Sur 0 979 1 65
2017-11-17 09:00:00 3.3 3 Este 9 Oeste 0 978.9 1 69
2017-11-17 08:00:00 1.3 4 Oeste 7 Oeste 0 978.4 0.5 72
2017-11-17 07:00:00 1.2 3 Oeste 11 Oeste 0 978 0 71
2017-11-17 06:00:00 1.5 5 Oeste 9 Oeste 0 977.9 -0.3 76
2017-11-17 05:00:00 1.2 3 Oeste 6 Oeste 0 977.9 -0.1 77
2017-11-17 04:00:00 0.5 3 Sudoeste 7 Sudoeste 0 978 -0.2 76
2017-11-17 03:00:00 0.6 2 Oeste 9 Nordeste 0 978.2 0.1 75
2017-11-17 02:00:00 3.2 4 Norte 12 Este 0 978 -0.2 68
2017-11-17 01:00:00 3.3 3 Noroeste 6 Noroeste 0 978.2 0.2 67
2017-11-17 00:00:00 3.7 2 Noroeste 6 Oeste 0 978.1 0.3 64
2017-11-16 23:00:00 4.1 5 Oeste 6 Oeste 0 978.2 0.6 61
2017-11-16 22:00:00 4.4 4 Oeste 6 Oeste 0 978 0.6 59
2017-11-16 21:00:00 5.2 2 Oeste 4 Oeste 0 977.8 0.6 56
2017-11-16 20:00:00 7 2 Norte 8 Oeste 0 977.6 0.5 53
2017-11-16 19:00:00 8.1 3 Noroeste 5 Noroeste 0 977.4 0.2 47
2017-11-16 18:00:00 9.8 3 Oeste 4 Oeste 0 977.2 -0.1 43
2017-11-16 17:00:00 12.6 2 Sudoeste 8 Sudeste 0 977.1 -0.7 36
2017-11-16 16:00:00 13 3 Noroeste 9 Sudeste 0 977.2 -1.1 34
2017-11-16 15:00:00 12.7 3 Sudoeste 12 Oeste 0 977.3 -1.7 34
2017-11-16 14:00:00 12.4 5 Oeste 12 Sur 0 977.8 -1.2 36
2017-11-16 13:00:00 11.6 5 Sudoeste 13 Sur 0 978.3 -0.4 36
2017-11-16 12:00:00 10 4 Sur 11 Sur 0 979 0.9 46
2017-11-16 11:00:00 8.5 3 Sur 7 Sudoeste 0 979 1.5 54
2017-11-16 10:00:00 6.4 2 Sudeste 6 Este 0 978.7 1.5 62
2017-11-16 09:00:00 2.8 0 Calma 10 Oeste 0 978.1 1.2 70
2017-11-16 08:00:00 1.6 7 Oeste 12 Oeste 0 977.5 0.8 70
2017-11-16 07:00:00 0.9 8 Oeste 13 Oeste 0 977.2 0.3 72
2017-11-16 06:00:00 1.1 11 Oeste 14 Oeste 0 976.9 -0.1 73
2017-11-16 05:00:00 3.3 4 Noroeste 11 Noroeste 0 976.7 -0.3 68
2017-11-16 04:00:00 4.4 8 Noroeste 15 Noroeste 0 976.9 0 67
2017-11-16 03:00:00 4 10 Noroeste 19 Noroeste 0 977 0.1 67
2017-11-16 02:00:00 4.7 9 Norte 16 Norte 0 977 0.1 60
2017-11-16 01:00:00 4.3 7 Norte 13 Norte 0 976.9 0.1 63
2017-11-16 00:00:00 3 4 Noroeste 6 Noroeste 0 976.9 0.4 68
2017-11-15 23:00:00 3.6 4 Noroeste 9 Norte 0 976.9 0.9 65
2017-11-15 22:00:00 5.2 4 Norte 10 Norte 0 976.8 1.3 62
2017-11-15 21:00:00 5.6 5 Noroeste 12 Nordeste 0 976.5 1.3 60
2017-11-15 20:00:00 6.2 4 Noroeste 9 Noroeste 0 976 0.9 58
2017-11-15 19:00:00 6.5 6 Noroeste 10 Oeste 0 975.5 0.3 56
2017-11-15 18:00:00 8.6 6 Oeste 14 Oeste 0 975.2 -0.1 45
2017-11-15 17:00:00 11.4 10 Oeste 15 Oeste 0 975.1 -0.9 36
2017-11-15 16:00:00 12.1 12 Oeste 17 Sudoeste 0 975.2 -1.5 35
2017-11-15 15:00:00 12.4 10 Sudoeste 21 Oeste 0 975.3 -2.4 35
2017-11-15 14:00:00 11.5 12 Sudoeste 23 Sudoeste 0 976 -2.3 38
2017-11-15 13:00:00 10.2 15 Oeste 28 Oeste 0 976.7 -1.3 44
2017-11-15 12:00:00 9 17 Oeste 31 Oeste 0 977.7 -0.4 46
2017-11-15 11:00:00 5.8 13 Oeste 25 Oeste 0 978.3 0.6 64
2017-11-15 10:00:00 5 15 Oeste 24 Oeste 0 978 0.6 69
2017-11-15 09:00:00 1.3 14 Oeste 19 Oeste 0 978.1 1 81
2017-11-15 08:00:00 0.9 8 Sudoeste 19 Oeste 0 977.7 0.3 77
2017-11-15 07:00:00 -0.8 5 Sudoeste 21 Oeste 0 977.4 -0.5 80
2017-11-15 06:00:00 1 17 Oeste 22 Oeste 0 977.1 -0.9 79
2017-11-15 05:00:00 0 15 Oeste 22 Oeste 0 977.4 -0.7 82
2017-11-15 04:00:00 -0.3 10 Oeste 15 Oeste 0 977.9 -0.4 81
2017-11-15 03:00:00 1 11 Oeste 17 Oeste 0 978 -0.1 75
2017-11-15 02:00:00 0.9 10 Sudoeste 15 Oeste 0 978.1 0 74
2017-11-15 01:00:00 1.8 8 Oeste 15 Oeste 0 978.3 0.7 70
2017-11-15 00:00:00 2.5 10 Oeste 17 Oeste 0 978.1 1.1 68